Time,TemperatureF,DewpointF,PressureIn,WindDirection,WindDirectionDegrees,WindSpeedMPH,WindSpeedGustMPH,Humidity,HourlyPrecipIn,Conditions,Clouds,dailyrainin,SolarRadiationWatts/m^2,SoftwareType,DateUTC
2013-02-16 00:00:00,30.9,28.0,29.90,North,0,0.0,0.0,89,0.00,CLR,,0.00,0.0,WeatherDisplay:10.37,2013-02-16 05:00:00,
2013-02-16 00:01:00,30.9,28.0,29.91,North,0,0.0,0.0,89,0.00,CLR,,0.00,0.0,WeatherDisplay:10.37,2013-02-16 05:01:00,
2013-02-16 00:06:00,30.7,27.8,29.91,North,0,0.0,0.0,89,0.00,CLR,,0.00,0.0,WeatherDisplay:10.37,2013-02-16 05:06:00,
2013-02-16 00:11:00,30.6,27.7,29.91,North,0,0.0,0.0,89,0.00,CLR,,0.00,0.0,WeatherDisplay:10.37,2013-02-16 05:11:00,
2013-02-16 00:16:00,30.6,27.7,29.92,North,0,0.0,0.0,89,0.00,CLR,,0.00,0.0,WeatherDisplay:10.37,2013-02-16 05:16:00,
2013-02-16 00:21:00,30.6,27.7,29.92,North,0,0.0,0.0,89,0.00,CLR,,0.00,0.0,WeatherDisplay:10.37,2013-02-16 05:21:00,
2013-02-16 00:23:00,30.6,27.7,29.92,North,0,0.0,0.0,89,0.00,CLR,,0.00,0.0,WeatherDisplay:10.37,2013-02-16 05:23:00,
2013-02-16 00:28:00,30.6,28.0,29.91,North,0,0.0,0.0,90,0.00,CLR,,0.00,0.0,WeatherDisplay:10.37,2013-02-16 05:28:00,
2013-02-16 00:33:00,30.6,28.0,29.91,North,0,0.0,0.0,90,0.00,CLR,,0.00,0.0,WeatherDisplay:10.37,2013-02-16 05:33:00,
2013-02-16 00:38:00,30.7,28.1,29.91,North,0,0.0,0.0,90,0.00,CLR,,0.00,0.0,WeatherDisplay:10.37,2013-02-16 05:38:00,
2013-02-16 00:43:00,30.6,28.0,29.91,North,0,0.0,0.0,90,0.00,CLR,,0.00,0.0,WeatherDisplay:10.37,2013-02-16 05:43:00,
2013-02-16 00:48:00,30.7,28.1,29.90,North,0,0.0,0.0,90,0.00,CLR,,0.00,0.0,WeatherDisplay:10.37,2013-02-16 05:48:00,
2013-02-16 00:53:00,30.7,28.1,29.91,North,0,0.0,0.0,90,0.00,CLR,,0.00,0.0,WeatherDisplay:10.37,2013-02-16 05:53:00,
2013-02-16 00:58:00,30.6,28.0,29.91,North,0,0.0,0.0,90,0.00,CLR,,0.00,0.0,WeatherDisplay:10.37,2013-02-16 05:58:00,
2013-02-16 01:03:00,30.6,28.0,29.91,North,0,0.0,0.0,90,0.00,CLR,,0.00,0.0,WeatherDisplay:10.37,2013-02-16 06:03:00,
2013-02-16 01:08:00,30.7,28.1,29.91,North,0,0.0,0.0,90,0.00,CLR,,0.00,0.0,WeatherDisplay:10.37,2013-02-16 06:08:00,
2013-02-16 01:13:00,30.8,28.2,29.91,North,0,0.0,0.0,90,0.00,CLR,,0.00,0.0,WeatherDisplay:10.37,2013-02-16 06:13:00,
2013-02-16 01:18:00,30.8,28.2,29.91,North,0,0.0,0.0,90,0.00,CLR,,0.00,0.0,WeatherDisplay:10.37,2013-02-16 06:18:00,
2013-02-16 01:23:00,30.8,28.2,29.91,North,0,0.0,0.0,90,0.00,CLR,,0.00,0.0,WeatherDisplay:10.37,2013-02-16 06:23:00,
2013-02-16 01:28:00,30.9,28.6,29.91,North,0,0.0,0.0,91,0.00,CLR,,0.00,0.0,WeatherDisplay:10.37,2013-02-16 06:28:00,
2013-02-16 01:33:00,30.9,28.6,29.90,North,0,0.0,0.0,91,0.00,CLR,,0.00,0.0,WeatherDisplay:10.37,2013-02-16 06:33:00,
2013-02-16 01:38:00,30.9,28.6,29.90,North,0,0.0,0.0,91,0.00,CLR,,0.00,0.0,WeatherDisplay:10.37,2013-02-16 06:38:00,
2013-02-16 01:43:00,31.1,28.8,29.90,North,0,0.0,0.0,91,0.00,CLR,,0.00,0.0,WeatherDisplay:10.37,2013-02-16 06:43:00,
2013-02-16 01:48:00,31.2,28.9,29.90,North,0,0.0,0.0,91,0.00,CLR,,0.00,0.0,WeatherDisplay:10.37,2013-02-16 06:48:00,
2013-02-16 01:53:00,31.2,28.9,29.90,North,0,0.0,0.0,91,0.00,CLR,,0.00,0.0,WeatherDisplay:10.37,2013-02-16 06:53:00,
2013-02-16 01:58:00,31.2,28.9,29.90,North,0,0.0,0.0,91,0.00,CLR,,0.00,0.0,WeatherDisplay:10.37,2013-02-16 06:58:00,
2013-02-16 02:03:00,31.2,28.9,29.90,North,0,0.0,0.0,91,0.00,CLR,,0.00,0.0,WeatherDisplay:10.37,2013-02-16 07:03:00,
2013-02-16 02:08:00,31.3,29.0,29.90,North,0,0.0,0.0,91,0.00,CLR,,0.00,0.0,WeatherDisplay:10.37,2013-02-16 07:08:00,
2013-02-16 02:13:00,31.3,29.0,29.90,North,0,0.0,0.0,91,0.00,CLR,,0.00,0.0,WeatherDisplay:10.37,2013-02-16 07:13:00,
2013-02-16 02:18:00,31.4,29.1,29.90,North,0,0.0,0.0,91,0.00,CLR,,0.00,0.0,WeatherDisplay:10.37,2013-02-16 07:18:00,
2013-02-16 02:23:00,31.4,29.1,29.89,North,0,0.0,0.0,91,0.00,CLR,,0.00,0.0,WeatherDisplay:10.37,2013-02-16 07:23:00,
2013-02-16 02:28:00,31.4,29.1,29.88,North,0,0.0,0.0,91,0.00,CLR,,0.00,0.0,WeatherDisplay:10.37,2013-02-16 07:28:00,
2013-02-16 02:33:00,31.4,29.1,29.89,North,0,0.0,0.0,91,0.00,CLR,,0.00,0.0,WeatherDisplay:10.37,2013-02-16 07:33:00,
2013-02-16 02:38:00,31.4,29.1,29.89,North,0,0.0,0.0,91,0.00,CLR,,0.00,0.0,WeatherDisplay:10.37,2013-02-16 07:38:00,
2013-02-16 02:43:00,31.3,29.0,29.89,North,0,0.0,0.0,91,0.00,CLR,,0.00,0.0,WeatherDisplay:10.37,2013-02-16 07:43:00,
2013-02-16 02:48:00,31.3,29.0,29.89,North,0,0.0,0.0,91,0.00,CLR,,0.00,0.0,WeatherDisplay:10.37,2013-02-16 07:48:00,
2013-02-16 02:53:00,31.2,28.9,29.89,North,0,0.0,0.0,91,0.00,CLR,,0.00,0.0,WeatherDisplay:10.37,2013-02-16 07:53:00,
2013-02-16 02:58:00,31.2,28.9,29.89,North,0,0.0,0.0,91,0.00,CLR,,0.00,0.0,WeatherDisplay:10.37,2013-02-16 07:58:00,
2013-02-16 03:03:00,31.2,28.9,29.90,North,0,0.0,0.0,91,0.00,CLR,,0.00,0.0,WeatherDisplay:10.37,2013-02-16 08:03:00,
2013-02-16 03:08:00,31.1,29.0,29.90,North,0,0.0,0.0,92,0.00,CLR,,0.00,0.0,WeatherDisplay:10.37,2013-02-16 08:08:00,
2013-02-16 03:13:00,31.3,29.2,29.90,North,0,0.0,0.0,92,0.00,CLR,,0.00,0.0,WeatherDisplay:10.37,2013-02-16 08:13:00,
2013-02-16 03:18:00,31.4,29.3,29.90,North,0,0.0,0.0,92,0.00,CLR,,0.00,0.0,WeatherDisplay:10.37,2013-02-16 08:18:00,
2013-02-16 03:23:00,31.5,29.4,29.89,North,0,0.0,0.0,92,0.00,CLR,,0.00,0.0,WeatherDisplay:10.37,2013-02-16 08:23:00,
2013-02-16 03:28:00,31.7,29.6,29.91,North,0,0.0,0.0,92,0.00,CLR,,0.00,0.0,WeatherDisplay:10.37,2013-02-16 08:28:00,
2013-02-16 03:33:00,31.8,29.7,29.91,North,0,0.0,0.0,92,0.00,CLR,,0.00,0.0,WeatherDisplay:10.37,2013-02-16 08:33:00,
2013-02-16 03:38:00,31.8,29.7,29.91,North,0,0.0,0.0,92,0.00,CLR,,0.00,0.0,WeatherDisplay:10.37,2013-02-16 08:38:00,
2013-02-16 03:43:00,31.9,29.8,29.90,North,0,0.0,0.0,92,0.00,CLR,,0.00,0.0,WeatherDisplay:10.37,2013-02-16 08:43:00,
2013-02-16 03:48:00,31.9,29.8,29.91,North,0,0.0,0.0,92,0.00,CLR,,0.00,0.0,WeatherDisplay:10.37,2013-02-16 08:48:00,
2013-02-16 03:53:00,32.0,29.9,29.90,North,0,0.0,0.0,92,0.00,CLR,,0.00,0.0,WeatherDisplay:10.37,2013-02-16 08:53:00,
2013-02-16 03:58:00,32.2,30.1,29.91,North,0,0.0,0.0,92,0.00,CLR,,0.00,0.0,WeatherDisplay:10.37,2013-02-16 08:58:00,
2013-02-16 04:03:00,32.3,30.2,29.91,North,0,0.0,0.0,92,0.00,CLR,,0.00,0.0,WeatherDisplay:10.37,2013-02-16 09:03:00,
2013-02-16 04:08:00,32.5,30.2,29.91,North,0,0.0,0.0,91,0.00,CLR,,0.00,0.0,WeatherDisplay:10.37,2013-02-16 09:08:00,
2013-02-16 04:13:00,32.7,30.4,29.89,North,0,0.0,0.0,91,0.00,CLR,,0.00,0.0,WeatherDisplay:10.37,2013-02-16 09:13:00,
2013-02-16 04:18:00,32.8,30.5,29.89,North,0,0.0,0.0,91,0.00,CLR,,0.00,0.0,WeatherDisplay:10.37,2013-02-16 09:18:00,
2013-02-16 04:23:00,32.8,30.5,29.90,North,0,0.0,0.0,91,0.00,CLR,,0.00,0.0,WeatherDisplay:10.37,2013-02-16 09:23:00,
2013-02-16 04:28:00,32.9,30.3,29.90,North,0,0.0,0.0,90,0.00,CLR,,0.00,0.0,WeatherDisplay:10.37,2013-02-16 09:28:00,
2013-02-16 04:33:00,33.0,30.4,29.90,North,0,0.0,0.0,90,0.00,CLR,,0.00,0.0,WeatherDisplay:10.37,2013-02-16 09:33:00,
2013-02-16 04:38:00,33.0,30.4,29.89,North,0,0.0,0.0,90,0.00,CLR,,0.00,0.0,WeatherDisplay:10.37,2013-02-16 09:38:00,
2013-02-16 04:43:00,33.0,30.1,29.89,North,0,0.0,0.0,89,0.00,CLR,,0.00,0.0,WeatherDisplay:10.37,2013-02-16 09:43:00,
2013-02-16 04:48:00,33.0,30.1,29.89,North,0,0.0,0.0,89,0.00,CLR,,0.00,0.0,WeatherDisplay:10.37,2013-02-16 09:48:00,
2013-02-16 04:53:00,32.9,30.0,29.89,North,0,0.0,0.0,89,0.00,CLR,,0.00,0.0,WeatherDisplay:10.37,2013-02-16 09:53:00,
2013-02-16 04:58:00,32.9,30.0,29.90,North,0,0.0,0.0,89,0.00,CLR,,0.00,0.0,WeatherDisplay:10.37,2013-02-16 09:58:00,
2013-02-16 05:03:00,32.9,30.0,29.90,North,0,0.0,0.0,89,0.00,CLR,,0.00,0.0,WeatherDisplay:10.37,2013-02-16 10:03:00,
2013-02-16 05:08:00,32.8,29.9,29.90,North,0,0.0,0.0,89,0.00,CLR,,0.00,0.0,WeatherDisplay:10.37,2013-02-16 10:08:00,
2013-02-16 05:13:00,32.8,29.9,29.90,North,0,0.0,0.0,89,0.00,CLR,,0.00,0.0,WeatherDisplay:10.37,2013-02-16 10:13:00,
2013-02-16 05:18:00,32.8,29.9,29.91,North,0,0.0,0.0,89,0.00,CLR,,0.00,0.0,WeatherDisplay:10.37,2013-02-16 10:18:00,
2013-02-16 05:23:00,32.7,29.8,29.90,North,0,0.0,0.0,89,0.00,CLR,,0.00,0.0,WeatherDisplay:10.37,2013-02-16 10:23:00,
2013-02-16 05:28:00,32.7,29.8,29.90,North,0,0.0,0.0,89,0.00,CLR,,0.00,0.0,WeatherDisplay:10.37,2013-02-16 10:28:00,
2013-02-16 05:33:00,32.6,29.7,29.90,North,0,0.0,0.0,89,0.00,CLR,,0.00,0.0,WeatherDisplay:10.37,2013-02-16 10:33:00,
2013-02-16 05:38:00,32.6,29.7,29.90,North,0,0.0,0.0,89,0.00,CLR,,0.00,0.0,WeatherDisplay:10.37,2013-02-16 10:38:00,
2013-02-16 05:43:00,32.5,29.6,29.90,North,0,0.0,0.0,89,0.00,CLR,,0.00,0.0,WeatherDisplay:10.37,2013-02-16 10:43:00,
2013-02-16 05:48:00,32.5,29.6,29.90,North,0,0.0,0.0,89,0.00,CLR,,0.00,0.0,WeatherDisplay:10.37,2013-02-16 10:48:00,
2013-02-16 05:53:00,32.4,29.5,29.89,North,0,0.0,0.0,89,0.00,CLR,,0.00,0.0,WeatherDisplay:10.37,2013-02-16 10:53:00,
2013-02-16 05:58:00,32.3,29.4,29.90,North,0,0.0,0.0,89,0.00,CLR,,0.00,0.0,WeatherDisplay:10.37,2013-02-16 10:58:00,
2013-02-16 06:03:00,32.3,29.4,29.90,North,0,0.0,0.0,89,0.00,CLR,,0.00,0.0,WeatherDisplay:10.37,2013-02-16 11:03:00,
2013-02-16 06:08:00,32.3,29.4,29.90,North,0,0.0,0.0,89,0.00,CLR,,0.00,0.0,WeatherDisplay:10.37,2013-02-16 11:08:00,
2013-02-16 06:13:00,32.2,29.3,29.90,North,0,0.0,0.0,89,0.00,OVC,,0.00,0.0,WeatherDisplay:10.37,2013-02-16 11:13:00,
2013-02-16 06:18:00,32.1,29.2,29.90,North,0,0.0,0.0,89,0.00,OVC,,0.00,0.0,WeatherDisplay:10.37,2013-02-16 11:18:00,
2013-02-16 06:23:00,32.1,29.2,29.89,North,0,0.0,0.0,89,0.00,OVC,,0.00,0.0,WeatherDisplay:10.37,2013-02-16 11:23:00,
2013-02-16 06:28:00,32.0,29.1,29.90,North,0,0.0,0.0,89,0.00,OVC,,0.00,0.0,WeatherDisplay:10.37,2013-02-16 11:28:00,
2013-02-16 06:33:00,32.0,29.1,29.90,North,0,0.0,0.0,89,0.00,OVC,,0.00,0.0,WeatherDisplay:10.37,2013-02-16 11:33:00,
2013-02-16 06:38:00,31.9,29.3,29.90,North,0,0.0,0.0,90,0.00,OVC,,0.00,0.0,WeatherDisplay:10.37,2013-02-16 11:38:00,
2013-02-16 06:43:00,31.9,29.3,29.90,North,0,0.0,0.0,90,0.00,OVC,,0.00,0.0,WeatherDisplay:10.37,2013-02-16 11:43:00,
2013-02-16 06:48:00,31.8,29.2,29.90,North,0,0.0,0.0,90,0.00,OVC,,0.00,0.0,WeatherDisplay:10.37,2013-02-16 11:48:00,
2013-02-16 06:53:00,31.8,29.2,29.90,North,0,0.0,0.0,90,0.00,OVC,,0.00,0.0,WeatherDisplay:10.37,2013-02-16 11:53:00,
2013-02-16 06:58:00,31.7,29.1,29.89,North,0,0.0,0.0,90,0.00,OVC,,0.00,0.0,WeatherDisplay:10.37,2013-02-16 11:58:00,
2013-02-16 07:03:00,31.7,29.1,29.89,North,0,0.0,0.0,90,0.00,OVC,,0.00,0.0,WeatherDisplay:10.37,2013-02-16 12:03:00,
2013-02-16 07:08:00,31.6,29.0,29.89,North,0,0.0,0.0,90,0.00,OVC,,0.00,0.0,WeatherDisplay:10.37,2013-02-16 12:08:00,
2013-02-16 07:13:00,31.6,29.0,29.90,North,0,0.0,0.0,90,0.00,OVC,,0.00,0.0,WeatherDisplay:10.37,2013-02-16 12:13:00,
2013-02-16 07:18:00,31.5,28.9,29.91,North,0,0.0,0.0,90,0.00,OVC,,0.00,0.0,WeatherDisplay:10.37,2013-02-16 12:18:00,
2013-02-16 07:23:00,31.4,28.8,29.91,North,0,0.0,0.0,90,0.00,OVC,,0.00,0.0,WeatherDisplay:10.37,2013-02-16 12:23:00,
2013-02-16 07:28:00,31.4,28.8,29.91,North,0,0.0,0.0,90,0.00,OVC,,0.00,0.0,WeatherDisplay:10.37,2013-02-16 12:28:00,
2013-02-16 07:33:00,31.3,28.7,29.91,North,0,0.0,0.0,90,0.00,OVC,,0.00,0.0,WeatherDisplay:10.37,2013-02-16 12:33:00,
2013-02-16 07:38:00,31.3,28.7,29.91,North,0,0.0,0.0,90,0.00,OVC,,0.00,5.0,WeatherDisplay:10.37,2013-02-16 12:38:00,
2013-02-16 07:43:00,31.3,28.7,29.92,North,0,0.0,0.0,90,0.00,BKN,,0.00,7.0,WeatherDisplay:10.37,2013-02-16 12:43:00,
2013-02-16 07:48:00,31.2,28.6,29.92,North,0,0.0,0.0,90,0.00,OVC,,0.00,7.0,WeatherDisplay:10.37,2013-02-16 12:48:00,
2013-02-16 07:53:00,31.2,28.6,29.92,North,0,0.0,0.0,90,0.00,BKN,,0.00,9.0,WeatherDisplay:10.37,2013-02-16 12:53:00,
2013-02-16 07:58:00,31.2,28.6,29.92,North,0,0.0,0.0,90,0.00,BKN,,0.00,11.0,WeatherDisplay:10.37,2013-02-16 12:58:00,
2013-02-16 08:03:00,31.2,28.6,29.92,North,0,0.0,0.0,90,0.00,BKN,,0.00,19.0,WeatherDisplay:10.37,2013-02-16 13:03:00,
2013-02-16 08:08:00,31.3,28.7,29.91,North,0,0.0,0.0,90,0.00,BKN,,0.00,26.0,WeatherDisplay:10.37,2013-02-16 13:08:00,
2013-02-16 08:13:00,31.3,29.0,29.92,North,0,0.0,0.0,91,0.00,BKN,,0.00,30.0,WeatherDisplay:10.37,2013-02-16 13:13:00,
2013-02-16 08:18:00,31.4,29.1,29.91,North,0,0.0,0.0,91,0.00,BKN,,0.00,33.0,WeatherDisplay:10.37,2013-02-16 13:18:00,
2013-02-16 08:23:00,31.6,29.3,29.91,North,0,0.0,0.0,91,0.00,BKN,,0.00,35.0,WeatherDisplay:10.37,2013-02-16 13:23:00,
2013-02-16 08:28:00,31.7,29.4,29.92,North,0,0.0,0.0,91,0.00,BKN,,0.00,30.0,WeatherDisplay:10.37,2013-02-16 13:28:00,
2013-02-16 08:33:00,31.8,29.5,29.92,North,0,0.0,0.0,91,0.00,BKN,,0.00,26.0,WeatherDisplay:10.37,2013-02-16 13:33:00,
2013-02-16 08:38:00,31.9,29.6,29.91,North,0,0.0,0.0,91,0.00,BKN,,0.00,35.0,WeatherDisplay:10.37,2013-02-16 13:38:00,
2013-02-16 08:43:00,31.9,29.6,29.91,North,0,0.0,0.0,91,0.00,BKN,,0.00,39.0,WeatherDisplay:10.37,2013-02-16 13:43:00,
2013-02-16 08:48:00,31.9,29.6,29.91,North,0,0.0,0.0,91,0.00,BKN,,0.00,40.0,WeatherDisplay:10.37,2013-02-16 13:48:00,
2013-02-16 08:53:00,31.9,29.6,29.91,North,0,0.0,0.0,91,0.00,BKN,,0.00,42.0,WeatherDisplay:10.37,2013-02-16 13:53:00,
2013-02-16 08:58:00,31.9,29.6,29.91,North,0,0.0,0.0,91,0.00,BKN,,0.00,51.0,WeatherDisplay:10.37,2013-02-16 13:58:00,
2013-02-16 09:03:00,32.0,29.7,29.91,North,0,0.0,0.0,91,0.00,BKN,,0.00,62.0,WeatherDisplay:10.37,2013-02-16 14:03:00,
2013-02-16 09:08:00,32.0,29.7,29.90,North,0,0.0,0.0,91,0.00,BKN,,0.00,72.0,WeatherDisplay:10.37,2013-02-16 14:08:00,
2013-02-16 09:13:00,32.1,29.8,29.90,North,0,0.0,0.0,91,0.00,BKN,,0.00,98.0,WeatherDisplay:10.37,2013-02-16 14:13:00,
2013-02-16 09:18:00,32.2,29.9,29.90,North,0,0.0,0.0,91,0.00,BKN,,0.00,134.0,WeatherDisplay:10.37,2013-02-16 14:18:00,
2013-02-16 09:23:00,32.4,30.1,29.89,North,0,0.0,0.0,91,0.00,BKN,,0.00,190.0,WeatherDisplay:10.37,2013-02-16 14:23:00,
2013-02-16 09:28:00,32.7,30.4,29.90,North,0,0.0,0.0,91,0.00,SCT,,0.00,213.0,WeatherDisplay:10.37,2013-02-16 14:28:00,
2013-02-16 09:33:00,33.0,30.7,29.90,North,0,0.0,0.0,91,0.00,SCT,,0.00,255.0,WeatherDisplay:10.37,2013-02-16 14:33:00,
2013-02-16 09:38:00,33.3,31.0,29.90,North,0,0.0,0.0,91,0.00,SCT,,0.01,257.0,WeatherDisplay:10.37,2013-02-16 14:38:00,
2013-02-16 09:43:00,33.5,31.2,29.89,North,0,0.0,0.0,91,0.01,RA,,0.01,260.0,WeatherDisplay:10.37,2013-02-16 14:43:00,
2013-02-16 09:48:00,33.7,31.4,29.89,North,0,0.0,0.0,91,0.01,RA,,0.01,218.0,WeatherDisplay:10.37,2013-02-16 14:48:00,
2013-02-16 09:53:00,33.9,31.3,29.89,North,0,0.0,0.0,90,0.02,RA,,0.02,167.0,WeatherDisplay:10.37,2013-02-16 14:53:00,
2013-02-16 09:58:00,34.1,31.5,29.89,North,0,0.0,0.0,90,0.02,RA,,0.02,139.0,WeatherDisplay:10.37,2013-02-16 14:58:00,
2013-02-16 10:03:00,34.2,31.3,29.89,North,0,0.0,0.0,89,0.02,BKN,,0.02,135.0,WeatherDisplay:10.37,2013-02-16 15:03:00,
2013-02-16 10:08:00,34.4,31.5,29.89,North,0,0.0,0.0,89,0.02,BKN,,0.02,144.0,WeatherDisplay:10.37,2013-02-16 15:08:00,
2013-02-16 10:13:00,34.5,31.3,29.89,North,0,0.0,0.0,88,0.02,BKN,,0.02,130.0,WeatherDisplay:10.37,2013-02-16 15:13:00,
2013-02-16 10:18:00,34.4,31.2,29.89,North,0,0.0,0.0,88,0.02,BKN,,0.02,156.0,WeatherDisplay:10.37,2013-02-16 15:18:00,
2013-02-16 10:23:00,34.4,30.9,29.89,North,0,0.0,0.0,87,0.02,BKN,,0.02,151.0,WeatherDisplay:10.37,2013-02-16 15:23:00,
2013-02-16 10:28:00,34.6,30.8,29.89,North,0,0.0,0.0,86,0.02,BKN,,0.02,130.0,WeatherDisplay:10.37,2013-02-16 15:28:00,
2013-02-16 10:33:00,34.7,30.9,29.89,North,0,0.0,0.0,86,0.02,BKN,,0.02,111.0,WeatherDisplay:10.37,2013-02-16 15:33:00,
2013-02-16 10:38:00,34.8,31.0,29.89,North,0,0.0,0.0,86,0.02,BKN,,0.02,114.0,WeatherDisplay:10.37,2013-02-16 15:38:00,
2013-02-16 10:43:00,34.8,30.8,29.89,North,0,0.0,0.0,85,0.01,BKN,,0.02,127.0,WeatherDisplay:10.37,2013-02-16 15:43:00,
2013-02-16 10:48:00,34.9,30.8,29.89,North,0,0.0,0.0,85,0.01,BKN,,0.02,125.0,WeatherDisplay:10.37,2013-02-16 15:48:00,
2013-02-16 10:53:00,34.9,30.8,29.89,North,0,0.0,0.0,85,0.00,BKN,,0.02,123.0,WeatherDisplay:10.37,2013-02-16 15:53:00,
2013-02-16 10:58:00,34.9,30.6,29.89,North,0,0.0,0.0,84,0.00,BKN,,0.02,144.0,WeatherDisplay:10.37,2013-02-16 15:58:00,
2013-02-16 11:03:00,35.0,30.7,29.88,North,0,0.0,0.0,84,0.00,BKN,,0.02,151.0,WeatherDisplay:10.37,2013-02-16 16:03:00,
2013-02-16 11:08:00,35.1,30.8,29.88,North,0,0.0,0.0,84,0.00,BKN,,0.02,156.0,WeatherDisplay:10.37,2013-02-16 16:08:00,
2013-02-16 11:13:00,35.1,30.8,29.88,North,0,0.0,0.0,84,0.00,BKN,,0.02,158.0,WeatherDisplay:10.37,2013-02-16 16:13:00,
2013-02-16 11:18:00,35.3,30.7,29.88,North,0,0.0,0.0,83,0.00,BKN,,0.02,149.0,WeatherDisplay:10.37,2013-02-16 16:18:00,
2013-02-16 11:23:00,35.4,30.8,29.88,North,0,0.0,0.0,83,0.00,BKN,,0.02,156.0,WeatherDisplay:10.37,2013-02-16 16:23:00,
2013-02-16 11:28:00,35.5,30.5,29.88,North,0,0.0,0.0,82,0.00,BKN,,0.02,146.0,WeatherDisplay:10.37,2013-02-16 16:28:00,
2013-02-16 11:33:00,35.7,30.7,29.88,North,0,0.0,0.0,82,0.00,BKN,,0.02,151.0,WeatherDisplay:10.37,2013-02-16 16:33:00,
2013-02-16 11:38:00,35.7,30.4,29.87,North,0,0.0,0.0,81,0.00,BKN,,0.02,149.0,WeatherDisplay:10.37,2013-02-16 16:38:00,
2013-02-16 11:43:00,35.7,30.4,29.87,North,0,0.0,0.0,81,0.00,BKN,,0.02,181.0,WeatherDisplay:10.37,2013-02-16 16:43:00,
2013-02-16 11:48:00,35.6,30.6,29.87,North,0,0.0,0.0,82,0.00,BKN,,0.02,229.0,WeatherDisplay:10.37,2013-02-16 16:48:00,
2013-02-16 11:53:00,35.8,31.1,29.86,North,0,0.0,0.0,83,0.00,BKN,,0.02,218.0,WeatherDisplay:10.37,2013-02-16 16:53:00,
2013-02-16 11:58:00,36.0,31.0,29.86,North,0,0.0,0.0,82,0.00,BKN,,0.02,172.0,WeatherDisplay:10.37,2013-02-16 16:58:00,
2013-02-16 12:03:00,36.1,31.1,29.86,North,0,0.0,0.0,82,0.00,BKN,,0.02,186.0,WeatherDisplay:10.37,2013-02-16 17:03:00,
2013-02-16 12:08:00,36.2,30.9,29.86,North,0,0.0,0.0,81,0.00,BKN,,0.02,174.0,WeatherDisplay:10.37,2013-02-16 17:08:00,
2013-02-16 12:13:00,36.2,30.9,29.86,North,0,0.0,0.0,81,0.00,BKN,,0.02,172.0,WeatherDisplay:10.37,2013-02-16 17:13:00,
2013-02-16 12:18:00,36.3,31.0,29.86,North,0,0.0,0.0,81,0.00,BKN,,0.02,186.0,WeatherDisplay:10.37,2013-02-16 17:18:00,
2013-02-16 12:23:00,36.4,31.1,29.86,North,0,0.0,0.0,81,0.00,BKN,,0.02,195.0,WeatherDisplay:10.37,2013-02-16 17:23:00,
2013-02-16 12:28:00,36.2,30.9,29.85,North,0,0.0,0.0,81,0.00,BKN,,0.02,148.0,WeatherDisplay:10.37,2013-02-16 17:28:00,
2013-02-16 12:33:00,36.0,30.7,29.86,North,0,0.0,0.0,81,0.00,BKN,,0.02,114.0,WeatherDisplay:10.37,2013-02-16 17:33:00,
2013-02-16 12:38:00,35.8,30.5,29.86,North,0,0.0,0.0,81,0.00,BKN,,0.02,128.0,WeatherDisplay:10.37,2013-02-16 17:38:00,
2013-02-16 12:43:00,35.7,30.1,29.85,North,0,0.0,0.0,80,0.00,BKN,,0.02,135.0,WeatherDisplay:10.37,2013-02-16 17:43:00,
2013-02-16 12:48:00,35.7,30.4,29.85,North,0,0.0,0.0,81,0.00,BKN,,0.02,134.0,WeatherDisplay:10.37,2013-02-16 17:48:00,
2013-02-16 12:53:00,35.7,30.1,29.84,North,0,0.0,0.0,80,0.00,BKN,,0.02,139.0,WeatherDisplay:10.37,2013-02-16 17:53:00,
2013-02-16 12:58:00,35.8,30.2,29.85,North,0,0.0,0.0,80,0.00,BKN,,0.02,141.0,WeatherDisplay:10.37,2013-02-16 17:58:00,
2013-02-16 13:03:00,35.8,30.2,29.85,North,0,0.0,0.0,80,0.00,BKN,,0.02,142.0,WeatherDisplay:10.37,2013-02-16 18:03:00,
2013-02-16 13:08:00,35.8,30.2,29.85,North,0,0.0,0.0,80,0.00,BKN,,0.02,158.0,WeatherDisplay:10.37,2013-02-16 18:08:00,
2013-02-16 13:13:00,35.8,30.2,29.85,North,0,0.0,0.0,80,0.00,BKN,,0.02,181.0,WeatherDisplay:10.37,2013-02-16 18:13:00,
2013-02-16 13:18:00,36.0,30.4,29.85,North,0,0.0,0.0,80,0.00,BKN,,0.02,167.0,WeatherDisplay:10.37,2013-02-16 18:18:00,
2013-02-16 13:23:00,36.1,30.5,29.85,North,0,0.0,0.0,80,0.00,BKN,,0.02,156.0,WeatherDisplay:10.37,2013-02-16 18:23:00,
2013-02-16 13:28:00,36.2,30.6,29.84,North,0,0.0,0.0,80,0.00,BKN,,0.02,174.0,WeatherDisplay:10.37,2013-02-16 18:28:00,
2013-02-16 13:33:00,36.2,30.6,29.84,North,0,0.0,0.0,80,0.00,BKN,,0.02,176.0,WeatherDisplay:10.37,2013-02-16 18:33:00,
2013-02-16 13:38:00,36.2,30.6,29.84,North,0,0.0,0.0,80,0.00,BKN,,0.02,167.0,WeatherDisplay:10.37,2013-02-16 18:38:00,
2013-02-16 13:43:00,36.3,30.7,29.84,North,0,0.0,0.0,80,0.00,BKN,,0.02,167.0,WeatherDisplay:10.37,2013-02-16 18:43:00,
2013-02-16 13:48:00,36.3,30.7,29.84,North,0,0.0,0.0,80,0.00,BKN,,0.02,174.0,WeatherDisplay:10.37,2013-02-16 18:48:00,
2013-02-16 13:53:00,36.2,30.6,29.83,North,0,0.0,0.0,80,0.00,BKN,,0.02,172.0,WeatherDisplay:10.37,2013-02-16 18:53:00,
2013-02-16 13:58:00,36.3,30.7,29.83,North,0,0.0,0.0,80,0.00,BKN,,0.02,160.0,WeatherDisplay:10.37,2013-02-16 18:58:00,
2013-02-16 14:03:00,36.4,30.8,29.83,North,0,0.0,0.0,80,0.00,BKN,,0.02,156.0,WeatherDisplay:10.37,2013-02-16 19:03:00,
2013-02-16 14:08:00,36.6,31.0,29.83,North,0,0.0,0.0,80,0.00,BKN,,0.02,141.0,WeatherDisplay:10.37,2013-02-16 19:08:00,
2013-02-16 14:13:00,36.7,30.8,29.83,North,0,0.0,0.0,79,0.00,BKN,,0.02,135.0,WeatherDisplay:10.37,2013-02-16 19:13:00,
2013-02-16 14:18:00,36.7,30.8,29.83,North,0,0.0,0.0,79,0.00,BKN,,0.02,132.0,WeatherDisplay:10.37,2013-02-16 19:18:00,
2013-02-16 14:23:00,36.7,30.5,29.82,North,0,0.0,0.0,78,0.00,BKN,,0.02,139.0,WeatherDisplay:10.37,2013-02-16 19:23:00,
2013-02-16 14:28:00,36.6,30.4,29.82,North,0,0.0,0.0,78,0.00,BKN,,0.02,130.0,WeatherDisplay:10.37,2013-02-16 19:28:00,
2013-02-16 14:33:00,36.6,30.4,29.82,North,0,0.0,0.0,78,0.00,BKN,,0.02,118.0,WeatherDisplay:10.37,2013-02-16 19:33:00,
2013-02-16 14:38:00,36.6,30.1,29.82,North,0,0.0,0.0,77,0.00,BKN,,0.02,113.0,WeatherDisplay:10.37,2013-02-16 19:38:00,
2013-02-16 14:43:00,36.5,30.3,29.82,North,0,0.0,0.0,78,0.00,BKN,,0.02,107.0,WeatherDisplay:10.37,2013-02-16 19:43:00,
2013-02-16 14:48:00,36.4,30.5,29.82,North,0,0.0,0.0,79,0.00,BKN,,0.02,104.0,WeatherDisplay:10.37,2013-02-16 19:48:00,
2013-02-16 14:53:00,36.5,30.6,29.82,North,0,0.0,0.0,79,0.00,BKN,,0.02,102.0,WeatherDisplay:10.37,2013-02-16 19:53:00,
2013-02-16 14:58:00,36.5,31.8,29.81,North,0,0.0,0.0,83,0.00,BKN,,0.02,100.0,WeatherDisplay:10.37,2013-02-16 19:58:00,
2013-02-16 15:03:00,36.5,30.6,29.82,North,0,0.0,0.0,79,0.00,BKN,,0.02,97.0,WeatherDisplay:10.37,2013-02-16 20:03:00,
2013-02-16 15:08:00,36.6,30.4,29.82,North,0,0.0,0.0,78,0.00,BKN,,0.02,90.0,WeatherDisplay:10.37,2013-02-16 20:08:00,
2013-02-16 15:13:00,36.6,30.4,29.81,North,0,0.0,0.0,78,0.00,BKN,,0.02,90.0,WeatherDisplay:10.37,2013-02-16 20:13:00,
2013-02-16 15:18:00,36.6,30.4,29.81,North,0,0.0,0.0,78,0.00,BKN,,0.02,91.0,WeatherDisplay:10.37,2013-02-16 20:18:00,
2013-02-16 15:23:00,36.6,30.4,29.81,North,0,0.0,0.0,78,0.00,BKN,,0.02,84.0,WeatherDisplay:10.37,2013-02-16 20:23:00,
2013-02-16 15:28:00,36.6,30.4,29.81,North,0,0.0,0.0,78,0.00,BKN,,0.02,81.0,WeatherDisplay:10.37,2013-02-16 20:28:00,
2013-02-16 15:33:00,36.6,30.1,29.80,North,0,0.0,0.0,77,0.00,BKN,,0.02,86.0,WeatherDisplay:10.37,2013-02-16 20:33:00,
2013-02-16 15:38:00,36.6,30.1,29.80,North,0,0.0,0.0,77,0.00,BKN,,0.02,77.0,WeatherDisplay:10.37,2013-02-16 20:38:00,
2013-02-16 15:43:00,36.6,30.1,29.80,North,0,0.0,0.0,77,0.00,BKN,,0.02,76.0,WeatherDisplay:10.37,2013-02-16 20:43:00,
2013-02-16 15:48:00,36.7,30.2,29.81,North,0,0.0,0.0,77,0.00,BKN,,0.02,79.0,WeatherDisplay:10.37,2013-02-16 20:48:00,
2013-02-16 15:53:00,36.7,29.8,29.80,North,0,0.0,0.0,76,0.00,BKN,,0.02,67.0,WeatherDisplay:10.37,2013-02-16 20:53:00,
2013-02-16 15:58:00,36.7,29.8,29.80,North,0,0.0,0.0,76,0.00,BKN,,0.02,53.0,WeatherDisplay:10.37,2013-02-16 20:58:00,
2013-02-16 16:03:00,36.7,29.8,29.80,North,0,0.0,0.0,76,0.00,BKN,,0.02,51.0,WeatherDisplay:10.37,2013-02-16 21:03:00,
2013-02-16 16:08:00,36.7,29.8,29.79,North,0,0.0,0.0,76,0.00,BKN,,0.02,49.0,WeatherDisplay:10.37,2013-02-16 21:08:00,
2013-02-16 16:13:00,36.7,29.8,29.79,North,0,0.0,0.0,76,0.00,BKN,,0.02,42.0,WeatherDisplay:10.37,2013-02-16 21:13:00,
2013-02-16 16:18:00,36.6,29.7,29.79,North,0,0.0,0.0,76,0.00,BKN,,0.02,33.0,WeatherDisplay:10.37,2013-02-16 21:18:00,
2013-02-16 16:23:00,36.6,29.7,29.79,North,0,0.0,0.0,76,0.00,BKN,,0.02,26.0,WeatherDisplay:10.37,2013-02-16 21:23:00,
2013-02-16 16:28:00,36.6,29.7,29.79,North,0,0.0,0.0,76,0.00,BKN,,0.02,26.0,WeatherDisplay:10.37,2013-02-16 21:28:00,
2013-02-16 16:33:00,36.5,29.7,29.79,North,0,0.0,0.0,76,0.00,BKN,,0.02,25.0,WeatherDisplay:10.37,2013-02-16 21:33:00,
2013-02-16 16:38:00,36.4,29.6,29.79,North,0,0.0,0.0,76,0.00,BKN,,0.02,19.0,WeatherDisplay:10.37,2013-02-16 21:38:00,
2013-02-16 16:43:00,36.3,29.5,29.79,North,0,0.0,0.0,76,0.00,BKN,,0.02,16.0,WeatherDisplay:10.37,2013-02-16 21:43:00,
2013-02-16 16:48:00,36.2,29.4,29.79,North,0,0.0,0.0,76,0.00,BKN,,0.02,14.0,WeatherDisplay:10.37,2013-02-16 21:48:00,
2013-02-16 16:53:00,36.2,29.0,29.78,North,0,0.0,0.0,75,0.00,BKN,,0.02,16.0,WeatherDisplay:10.37,2013-02-16 21:53:00,
2013-02-16 16:58:00,36.1,29.3,29.78,North,0,0.0,0.0,76,0.00,BKN,,0.02,14.0,WeatherDisplay:10.37,2013-02-16 21:58:00,
2013-02-16 17:03:00,36.0,29.2,29.79,North,0,0.0,0.0,76,0.00,BKN,,0.02,11.0,WeatherDisplay:10.37,2013-02-16 22:03:00,
2013-02-16 17:08:00,36.0,29.5,29.78,North,0,0.0,0.0,77,0.00,BKN,,0.02,5.0,WeatherDisplay:10.37,2013-02-16 22:08:00,
2013-02-16 17:13:00,35.9,29.4,29.78,North,0,0.0,0.0,77,0.00,OVC,,0.02,0.0,WeatherDisplay:10.37,2013-02-16 22:13:00,
2013-02-16 17:18:00,35.8,29.0,29.78,North,0,0.0,0.0,76,0.00,OVC,,0.02,0.0,WeatherDisplay:10.37,2013-02-16 22:18:00,
2013-02-16 17:23:00,35.8,29.3,29.78,North,0,0.0,0.0,77,0.00,OVC,,0.02,0.0,WeatherDisplay:10.37,2013-02-16 22:23:00,
2013-02-16 17:28:00,35.7,29.2,29.79,North,0,0.0,0.0,77,0.00,OVC,,0.02,0.0,WeatherDisplay:10.37,2013-02-16 22:28:00,
2013-02-16 17:33:00,35.6,29.1,29.79,North,0,0.0,0.0,77,0.00,OVC,,0.02,0.0,WeatherDisplay:10.37,2013-02-16 22:33:00,
2013-02-16 17:38:00,35.5,29.3,29.79,North,0,0.0,0.0,78,0.00,OVC,,0.02,0.0,WeatherDisplay:10.37,2013-02-16 22:38:00,
2013-02-16 17:43:00,35.4,29.2,29.79,North,0,0.0,0.0,78,0.00,OVC,,0.02,0.0,WeatherDisplay:10.37,2013-02-16 22:43:00,
2013-02-16 17:48:00,35.4,29.2,29.80,North,0,0.0,0.0,78,0.00,OVC,,0.02,0.0,WeatherDisplay:10.37,2013-02-16 22:48:00,
2013-02-16 17:53:00,35.3,29.4,29.80,North,0,0.0,0.0,79,0.00,CLR,,0.02,0.0,WeatherDisplay:10.37,2013-02-16 22:53:00,
2013-02-16 17:58:00,35.1,29.2,29.80,North,0,0.0,0.0,79,0.00,CLR,,0.02,0.0,WeatherDisplay:10.37,2013-02-16 22:58:00,
2013-02-16 18:03:00,35.1,29.6,29.80,North,0,0.0,0.0,80,0.00,CLR,,0.02,0.0,WeatherDisplay:10.37,2013-02-16 23:03:00,
2013-02-16 18:08:00,35.0,29.5,29.80,North,0,0.0,0.0,80,0.00,CLR,,0.02,0.0,WeatherDisplay:10.37,2013-02-16 23:08:00,
2013-02-16 18:13:00,34.9,29.4,29.80,North,0,0.0,0.0,80,0.00,CLR,,0.02,0.0,WeatherDisplay:10.37,2013-02-16 23:13:00,
2013-02-16 18:18:00,34.9,29.4,29.80,North,0,0.0,0.0,80,0.00,CLR,,0.02,0.0,WeatherDisplay:10.37,2013-02-16 23:18:00,
2013-02-16 18:23:00,34.8,29.6,29.80,North,0,0.0,0.0,81,0.00,CLR,,0.02,0.0,WeatherDisplay:10.37,2013-02-16 23:23:00,
2013-02-16 18:28:00,34.8,29.6,29.80,North,0,0.0,0.0,81,0.00,CLR,,0.02,0.0,WeatherDisplay:10.37,2013-02-16 23:28:00,
2013-02-16 18:33:00,34.6,29.4,29.80,North,0,0.0,0.0,81,0.00,CLR,,0.02,0.0,WeatherDisplay:10.37,2013-02-16 23:33:00,
2013-02-16 18:38:00,34.6,29.4,29.80,North,0,0.0,0.0,81,0.00,CLR,,0.02,0.0,WeatherDisplay:10.37,2013-02-16 23:38:00,
2013-02-16 18:43:00,34.4,28.9,29.80,North,0,0.0,0.0,80,0.00,CLR,,0.02,0.0,WeatherDisplay:10.37,2013-02-16 23:43:00,
2013-02-16 18:48:00,34.4,28.9,29.80,North,0,0.0,0.0,80,0.00,CLR,,0.02,0.0,WeatherDisplay:10.37,2013-02-16 23:48:00,
2013-02-16 18:53:00,34.4,28.9,29.80,North,0,0.0,0.0,80,0.00,CLR,,0.02,0.0,WeatherDisplay:10.37,2013-02-16 23:53:00,
2013-02-16 18:58:00,34.4,28.9,29.79,North,0,0.0,0.0,80,0.00,CLR,,0.02,0.0,WeatherDisplay:10.37,2013-02-16 23:58:00,
2013-02-16 19:03:00,34.2,28.4,29.79,North,0,0.0,0.0,79,0.00,CLR,,0.02,0.0,WeatherDisplay:10.37,2013-02-17 00:03:00,
2013-02-16 19:08:00,34.1,28.3,29.79,North,0,0.0,0.0,79,0.00,CLR,,0.02,0.0,WeatherDisplay:10.37,2013-02-17 00:08:00,
2013-02-16 19:13:00,34.1,28.3,29.79,North,0,0.0,0.0,79,0.00,CLR,,0.02,0.0,WeatherDisplay:10.37,2013-02-17 00:13:00,
2013-02-16 19:18:00,34.0,28.2,29.79,North,0,0.0,0.0,79,0.00,CLR,,0.02,0.0,WeatherDisplay:10.37,2013-02-17 00:18:00,
2013-02-16 19:23:00,33.8,27.7,29.78,North,0,0.0,0.0,78,0.00,CLR,,0.02,0.0,WeatherDisplay:10.37,2013-02-17 00:23:00,
2013-02-16 19:28:00,33.7,27.6,29.78,North,0,0.0,0.0,78,0.00,CLR,,0.02,0.0,WeatherDisplay:10.37,2013-02-17 00:28:00,
2013-02-16 19:33:00,33.6,27.2,29.78,North,0,0.0,0.0,77,0.00,CLR,,0.02,0.0,WeatherDisplay:10.37,2013-02-17 00:33:00,
2013-02-16 19:38:00,33.6,28.4,29.78,North,0,0.0,0.0,81,0.00,CLR,,0.02,0.0,WeatherDisplay:10.37,2013-02-17 00:38:00,
2013-02-16 19:43:00,33.5,26.7,29.77,North,0,0.0,0.0,76,0.00,CLR,,0.02,0.0,WeatherDisplay:10.37,2013-02-17 00:43:00,
2013-02-16 19:48:00,33.5,26.7,29.77,North,0,0.0,0.0,76,0.00,CLR,,0.02,0.0,WeatherDisplay:10.37,2013-02-17 00:48:00,
2013-02-16 19:53:00,33.5,26.7,29.77,North,0,0.0,0.0,76,0.00,CLR,,0.02,0.0,WeatherDisplay:10.37,2013-02-17 00:53:00,
2013-02-16 19:58:00,33.5,26.7,29.76,North,0,0.0,0.0,76,0.00,CLR,,0.02,0.0,WeatherDisplay:10.37,2013-02-17 00:58:00,
2013-02-16 20:03:00,33.4,26.6,29.76,North,0,0.0,0.0,76,0.00,CLR,,0.02,0.0,WeatherDisplay:10.37,2013-02-17 01:03:00,
2013-02-16 20:08:00,33.3,25.9,29.76,North,0,0.0,0.0,74,0.00,CLR,,0.02,0.0,WeatherDisplay:10.37,2013-02-17 01:08:00,
2013-02-16 20:13:00,33.3,25.2,29.76,North,0,0.0,0.0,72,0.00,CLR,,0.02,0.0,WeatherDisplay:10.37,2013-02-17 01:13:00,
2013-02-16 20:18:00,33.3,24.9,29.76,North,0,0.0,0.0,71,0.00,CLR,,0.02,0.0,WeatherDisplay:10.37,2013-02-17 01:18:00,
2013-02-16 20:23:00,33.3,24.2,29.76,North,0,0.0,0.0,69,0.00,CLR,,0.02,0.0,WeatherDisplay:10.37,2013-02-17 01:23:00,
2013-02-16 20:28:00,33.3,24.6,29.75,North,0,0.0,0.0,70,0.00,CLR,,0.02,0.0,WeatherDisplay:10.37,2013-02-17 01:28:00,
2013-02-16 20:33:00,33.3,24.2,29.76,North,0,0.0,0.0,69,0.00,CLR,,0.02,0.0,WeatherDisplay:10.37,2013-02-17 01:33:00,
2013-02-16 20:38:00,33.2,24.1,29.76,North,0,0.0,0.0,69,0.00,CLR,,0.02,0.0,WeatherDisplay:10.37,2013-02-17 01:38:00,
2013-02-16 20:43:00,33.2,24.1,29.76,North,0,0.0,0.0,69,0.00,CLR,,0.02,0.0,WeatherDisplay:10.37,2013-02-17 01:43:00,
2013-02-16 20:48:00,33.1,23.3,29.76,North,0,0.0,0.0,67,0.00,CLR,,0.02,0.0,WeatherDisplay:10.37,2013-02-17 01:48:00,
2013-02-16 20:53:00,33.0,22.9,29.76,North,0,0.0,0.0,66,0.00,CLR,,0.02,0.0,WeatherDisplay:10.37,2013-02-17 01:53:00,
2013-02-16 20:58:00,32.9,22.8,29.76,North,0,0.0,0.0,66,0.00,CLR,,0.02,0.0,WeatherDisplay:10.37,2013-02-17 01:58:00,
2013-02-16 21:03:00,32.9,23.1,29.76,North,0,0.0,0.0,67,0.00,CLR,,0.02,0.0,WeatherDisplay:10.37,2013-02-17 02:03:00,
2013-02-16 21:08:00,32.8,23.0,29.76,North,0,0.0,0.0,67,0.00,CLR,,0.02,0.0,WeatherDisplay:10.37,2013-02-17 02:08:00,
2013-02-16 21:13:00,32.7,22.6,29.77,North,0,0.0,0.0,66,0.00,CLR,,0.02,0.0,WeatherDisplay:10.37,2013-02-17 02:13:00,
2013-02-16 21:18:00,32.6,22.8,29.77,North,0,0.0,0.0,67,0.00,CLR,,0.02,0.0,WeatherDisplay:10.37,2013-02-17 02:18:00,
2013-02-16 21:23:00,32.6,22.8,29.76,North,0,0.0,0.0,67,0.00,CLR,,0.02,0.0,WeatherDisplay:10.37,2013-02-17 02:23:00,
2013-02-16 21:28:00,32.5,23.1,29.77,North,0,0.0,0.0,68,0.00,CLR,,0.02,0.0,WeatherDisplay:10.37,2013-02-17 02:28:00,
2013-02-16 21:33:00,32.4,22.3,29.76,North,0,0.0,0.0,66,0.00,CLR,,0.02,0.0,WeatherDisplay:10.37,2013-02-17 02:33:00,
2013-02-16 21:38:00,32.3,21.8,29.76,North,0,0.0,0.0,65,0.00,CLR,,0.02,0.0,WeatherDisplay:10.37,2013-02-17 02:38:00,
2013-02-16 21:43:00,32.2,21.7,29.76,North,0,0.0,0.0,65,0.00,CLR,,0.02,0.0,WeatherDisplay:10.37,2013-02-17 02:43:00,
2013-02-16 21:48:00,32.0,21.9,29.75,North,0,0.0,0.0,66,0.00,CLR,,0.02,0.0,WeatherDisplay:10.37,2013-02-17 02:48:00,
2013-02-16 21:53:00,31.9,22.2,29.74,North,0,0.0,0.0,67,0.00,CLR,,0.02,0.0,WeatherDisplay:10.37,2013-02-17 02:53:00,
2013-02-16 21:58:00,31.8,22.1,29.74,North,0,0.0,0.0,67,0.00,CLR,,0.02,0.0,WeatherDisplay:10.37,2013-02-17 02:58:00,
2013-02-16 22:03:00,31.6,21.9,29.75,North,0,0.0,0.0,67,0.00,CLR,,0.02,0.0,WeatherDisplay:10.37,2013-02-17 03:03:00,
2013-02-16 22:08:00,31.4,21.7,29.74,North,0,0.0,0.0,67,0.00,CLR,,0.02,0.0,WeatherDisplay:10.37,2013-02-17 03:08:00,
2013-02-16 22:13:00,31.3,21.6,29.73,North,0,0.0,0.0,67,0.00,CLR,,0.02,0.0,WeatherDisplay:10.37,2013-02-17 03:13:00,
2013-02-16 22:18:00,31.2,21.2,29.73,North,0,0.0,0.0,66,0.00,CLR,,0.02,0.0,WeatherDisplay:10.37,2013-02-17 03:18:00,
2013-02-16 22:23:00,31.1,21.1,29.73,North,0,0.0,0.0,66,0.00,CLR,,0.02,0.0,WeatherDisplay:10.37,2013-02-17 03:23:00,
2013-02-16 22:28:00,31.0,21.0,29.72,North,0,0.0,0.0,66,0.00,CLR,,0.02,0.0,WeatherDisplay:10.37,2013-02-17 03:28:00,
2013-02-16 22:33:00,30.9,20.9,29.72,North,0,0.0,0.0,66,0.00,CLR,,0.02,0.0,WeatherDisplay:10.37,2013-02-17 03:33:00,
2013-02-16 22:38:00,30.8,20.8,29.71,North,0,0.0,0.0,66,0.00,CLR,,0.02,0.0,WeatherDisplay:10.37,2013-02-17 03:38:00,
2013-02-16 22:43:00,30.8,20.8,29.70,North,0,0.0,0.0,66,0.00,CLR,,0.02,0.0,WeatherDisplay:10.37,2013-02-17 03:43:00,
2013-02-16 22:48:00,30.7,20.7,29.70,North,0,0.0,0.0,66,0.00,CLR,,0.02,0.0,WeatherDisplay:10.37,2013-02-17 03:48:00,
2013-02-16 22:53:00,30.6,20.6,29.71,North,0,0.0,0.0,66,0.00,CLR,,0.02,0.0,WeatherDisplay:10.37,2013-02-17 03:53:00,
2013-02-16 22:58:00,30.6,20.6,29.70,North,0,0.0,0.0,66,0.00,CLR,,0.02,0.0,WeatherDisplay:10.37,2013-02-17 03:58:00,
2013-02-16 23:03:00,30.5,20.8,29.70,North,0,0.0,0.0,67,0.00,CLR,,0.02,0.0,WeatherDisplay:10.37,2013-02-17 04:03:00,
2013-02-16 23:08:00,30.4,20.7,29.69,North,0,0.0,0.0,67,0.00,CLR,,0.02,0.0,WeatherDisplay:10.37,2013-02-17 04:08:00,
2013-02-16 23:13:00,30.3,20.6,29.70,North,0,0.0,0.0,67,0.00,CLR,,0.02,0.0,WeatherDisplay:10.37,2013-02-17 04:13:00,
2013-02-16 23:18:00,30.1,20.8,29.69,North,0,0.0,0.0,68,0.00,CLR,,0.02,0.0,WeatherDisplay:10.37,2013-02-17 04:18:00,
2013-02-16 23:23:00,30.0,20.7,29.69,North,0,0.0,0.0,68,0.00,CLR,,0.02,0.0,WeatherDisplay:10.37,2013-02-17 04:23:00,
2013-02-16 23:28:00,29.9,20.6,29.69,North,0,0.0,0.0,68,0.00,CLR,,0.02,0.0,WeatherDisplay:10.37,2013-02-17 04:28:00,
2013-02-16 23:33:00,29.7,20.4,29.69,North,0,0.0,0.0,68,0.00,CLR,,0.02,0.0,WeatherDisplay:10.37,2013-02-17 04:33:00,
2013-02-16 23:38:00,29.7,20.8,29.68,North,0,0.0,0.0,69,0.00,CLR,,0.02,0.0,WeatherDisplay:10.37,2013-02-17 04:38:00,
2013-02-16 23:43:00,29.5,20.9,29.68,North,0,0.0,0.0,70,0.00,CLR,,0.02,0.0,WeatherDisplay:10.37,2013-02-17 04:43:00,
2013-02-16 23:48:00,29.4,20.8,29.68,North,0,0.0,0.0,70,0.00,CLR,,0.02,0.0,WeatherDisplay:10.37,2013-02-17 04:48:00,
2013-02-16 23:53:00,29.3,21.1,29.67,North,0,0.0,0.0,71,0.00,CLR,,0.02,0.0,WeatherDisplay:10.37,2013-02-17 04:53:00,
2013-02-16 23:58:00,29.3,21.1,29.66,North,0,0.0,0.0,71,0.00,CLR,,0.02,0.0,WeatherDisplay:10.37,2013-02-17 04:58:00,